createdAt,value
2023-03-29T00:02:07.301Z,52.80
2023-03-29T00:04:34.381Z,52.80
2023-03-29T00:07:04.698Z,52.90
2023-03-29T00:09:33.300Z,52.90
2023-03-29T00:12:00.993Z,52.90
2023-03-29T00:14:30.346Z,52.90
2023-03-29T00:16:57.598Z,52.90
2023-03-29T00:19:24.504Z,53.00
2023-03-29T00:21:51.276Z,52.80
2023-03-29T00:24:18.086Z,52.80
2023-03-29T00:26:44.884Z,52.80
2023-03-29T00:29:11.823Z,52.80
2023-03-29T00:31:38.610Z,52.80
2023-03-29T00:34:05.499Z,52.90
2023-03-29T00:36:32.299Z,53.00
2023-03-29T00:38:59.059Z,53.00
2023-03-29T00:41:27.160Z,52.80
2023-03-29T00:43:59.796Z,52.90
2023-03-29T00:46:28.952Z,52.70
2023-03-29T00:49:02.544Z,52.60
2023-03-29T00:51:32.845Z,52.40
2023-03-29T00:54:03.807Z,52.30
2023-03-29T00:56:37.778Z,52.30
2023-03-29T00:59:10.049Z,52.30
2023-03-29T01:01:42.028Z,52.40
2023-03-29T01:04:32.419Z,52.30
2023-03-29T01:07:42.927Z,52.40
2023-03-29T01:10:15.498Z,52.20
2023-03-29T01:12:56.357Z,52.10
2023-03-29T01:15:27.141Z,52.10
2023-03-29T01:17:58.035Z,51.80
2023-03-29T01:20:51.015Z,51.80
2023-03-29T01:23:28.352Z,51.70
2023-03-29T01:26:16.927Z,51.70
2023-03-29T01:29:04.732Z,51.90
2023-03-29T01:31:36.978Z,51.70
2023-03-29T01:34:15.030Z,51.60
2023-03-29T01:36:54.792Z,51.40
2023-03-29T01:39:22.019Z,51.40
2023-03-29T01:42:17.629Z,51.20
2023-03-29T01:44:52.746Z,51.30
2023-03-29T01:47:47.773Z,51.20
2023-03-29T01:50:21.415Z,51.20
2023-03-29T01:52:59.714Z,50.90
2023-03-29T01:55:32.273Z,51.00
2023-03-29T01:58:01.249Z,51.00
2023-03-29T02:00:29.566Z,51.10
2023-03-29T02:03:03.291Z,50.90
2023-03-29T02:05:31.650Z,50.90
2023-03-29T02:08:01.479Z,50.90
2023-03-29T02:10:29.800Z,51.00
2023-03-29T02:12:56.610Z,50.90
2023-03-29T02:15:23.667Z,51.00
2023-03-29T02:17:51.373Z,51.00
2023-03-29T02:20:32.298Z,50.90
2023-03-29T02:23:02.433Z,50.90
2023-03-29T02:25:29.639Z,51.10
2023-03-29T02:27:57.289Z,51.10
2023-03-29T02:30:30.167Z,51.30
2023-03-29T02:33:06.881Z,51.40
2023-03-29T02:35:41.499Z,51.30
2023-03-29T02:38:14.684Z,51.10
2023-03-29T02:40:42.893Z,51.10
2023-03-29T02:43:11.582Z,51.20
2023-03-29T02:45:39.909Z,51.20
2023-03-29T02:48:10.170Z,51.40
2023-03-29T02:50:42.533Z,51.50
2023-03-29T02:53:24.192Z,51.40
2023-03-29T02:55:52.839Z,51.50
2023-03-29T02:58:20.807Z,51.60
2023-03-29T03:00:48.941Z,51.60
2023-03-29T03:03:16.001Z,51.60
2023-03-29T03:05:46.014Z,51.60
2023-03-29T03:08:14.030Z,51.60
2023-03-29T03:10:41.033Z,51.50
2023-03-29T03:13:07.903Z,51.60
2023-03-29T03:15:42.555Z,51.70
2023-03-29T03:18:10.586Z,51.70
2023-03-29T03:20:37.467Z,51.70
2023-03-29T03:23:04.291Z,51.90
2023-03-29T03:25:32.364Z,52.00
2023-03-29T03:27:59.488Z,52.30
2023-03-29T03:30:27.152Z,52.20
2023-03-29T03:33:12.842Z,52.30
2023-03-29T03:36:02.830Z,52.30
2023-03-29T03:38:31.000Z,52.20
2023-03-29T03:41:01.266Z,52.30
2023-03-29T03:43:31.999Z,52.30
2023-03-29T03:45:59.078Z,53.00
2023-03-29T03:48:26.321Z,52.40
2023-03-29T03:51:04.827Z,52.30
2023-03-29T03:53:33.993Z,52.30
2023-03-29T03:56:09.094Z,52.30
2023-03-29T03:58:51.633Z,52.30
2023-03-29T04:01:20.137Z,52.20
2023-03-29T04:03:58.736Z,52.20
2023-03-29T04:06:26.219Z,52.30
2023-03-29T04:09:12.860Z,52.30
2023-03-29T04:11:43.014Z,52.30
2023-03-29T04:14:11.806Z,52.30
2023-03-29T04:17:03.134Z,52.30
2023-03-29T04:19:57.614Z,52.30
2023-03-29T04:22:27.216Z,52.40
2023-03-29T04:24:54.353Z,52.40
2023-03-29T04:27:53.576Z,52.40
2023-03-29T04:30:40.075Z,52.60
2023-03-29T04:33:07.169Z,52.40
2023-03-29T04:35:35.935Z,52.60
2023-03-29T04:38:04.303Z,52.70
2023-03-29T04:40:31.675Z,52.80
2023-03-29T04:43:34.368Z,52.70
2023-03-29T04:46:11.559Z,52.50
2023-03-29T04:48:59.194Z,52.50
2023-03-29T04:51:34.435Z,52.40
2023-03-29T04:54:01.742Z,52.40
2023-03-29T04:56:28.982Z,52.50
2023-03-29T04:59:34.444Z,52.40
2023-03-29T05:02:05.258Z,52.40
2023-03-29T05:04:32.989Z,52.40
2023-03-29T05:07:06.662Z,52.60
2023-03-29T05:09:35.634Z,52.60
2023-03-29T05:12:04.570Z,52.50
2023-03-29T05:14:42.847Z,52.50
2023-03-29T05:17:09.699Z,52.50
2023-03-29T05:19:37.346Z,52.50
2023-03-29T05:22:04.485Z,52.50
2023-03-29T05:24:32.387Z,52.40
2023-03-29T05:27:04.914Z,52.50
2023-03-29T05:29:34.552Z,52.50
2023-03-29T05:32:28.227Z,52.50
2023-03-29T05:34:55.417Z,52.50
2023-03-29T05:37:22.325Z,52.50
2023-03-29T05:40:06.190Z,52.50
2023-03-29T05:42:37.880Z,52.40
2023-03-29T05:45:08.744Z,52.50
2023-03-29T05:47:36.160Z,52.30
2023-03-29T05:50:03.475Z,52.50
2023-03-29T05:52:30.902Z,52.40
2023-03-29T05:54:57.796Z,52.40
2023-03-29T05:57:25.952Z,52.40
2023-03-29T05:59:53.241Z,52.40
2023-03-29T06:02:20.148Z,52.40
2023-03-29T06:04:51.998Z,52.50
2023-03-29T06:07:25.434Z,52.30
2023-03-29T06:10:11.975Z,52.40
2023-03-29T06:12:42.856Z,52.20
2023-03-29T06:15:10.357Z,52.00
2023-03-29T06:17:50.012Z,52.10
2023-03-29T06:20:17.148Z,52.10
2023-03-29T06:22:48.526Z,52.00
2023-03-29T06:25:17.499Z,52.20
2023-03-29T06:27:47.399Z,52.10
2023-03-29T06:30:16.911Z,52.10
2023-03-29T06:32:50.539Z,51.90
2023-03-29T06:35:31.785Z,51.90
2023-03-29T06:38:05.612Z,51.80
2023-03-29T06:40:52.760Z,51.70
2023-03-29T06:43:22.068Z,51.90
2023-03-29T06:46:11.602Z,52.00
2023-03-29T06:48:53.304Z,51.90
2023-03-29T06:51:23.375Z,51.80
2023-03-29T06:53:51.200Z,52.10
2023-03-29T06:56:18.524Z,52.10
2023-03-29T06:58:48.590Z,52.40
2023-03-29T07:01:43.143Z,52.30
2023-03-29T07:04:17.646Z,52.10
2023-03-29T07:07:19.771Z,52.50
2023-03-29T07:09:54.088Z,52.20
2023-03-29T07:12:40.968Z,51.80
2023-03-29T07:15:09.530Z,51.40
2023-03-29T07:18:00.113Z,51.00
2023-03-29T07:20:27.179Z,50.80
2023-03-29T07:23:08.119Z,50.80
2023-03-29T07:25:35.296Z,51.10
2023-03-29T07:28:02.625Z,51.30
2023-03-29T07:30:32.400Z,51.50
2023-03-29T07:33:26.324Z,51.40
2023-03-29T07:35:57.238Z,51.00
2023-03-29T07:38:25.196Z,51.90
2023-03-29T07:40:58.616Z,50.90
2023-03-29T07:43:44.123Z,50.70
2023-03-29T07:46:12.935Z,50.80
2023-03-29T07:48:40.270Z,50.60
2023-03-29T07:51:13.098Z,50.40
2023-03-29T07:53:44.756Z,50.20
2023-03-29T07:56:34.357Z,50.40
2023-03-29T07:59:21.598Z,50.40
2023-03-29T08:02:01.219Z,50.30
2023-03-29T08:04:38.458Z,50.20
2023-03-29T08:07:21.926Z,50.30
2023-03-29T08:10:11.131Z,50.50
2023-03-29T08:12:54.564Z,50.30
2023-03-29T08:15:28.762Z,50.50
2023-03-29T08:17:55.995Z,50.60
2023-03-29T08:20:22.956Z,50.70
2023-03-29T08:22:55.003Z,50.70
2023-03-29T08:25:51.633Z,50.40
2023-03-29T08:28:18.558Z,50.30
2023-03-29T08:30:50.018Z,50.40
2023-03-29T08:33:17.265Z,50.10
2023-03-29T08:35:47.491Z,50.00
2023-03-29T08:38:34.662Z,49.90
2023-03-29T08:41:01.943Z,50.00
2023-03-29T08:43:56.339Z,49.90
2023-03-29T08:46:42.261Z,50.10
2023-03-29T08:49:32.874Z,50.00
2023-03-29T08:52:11.923Z,49.30
2023-03-29T08:54:45.023Z,49.50
2023-03-29T08:57:40.879Z,49.20
2023-03-29T09:00:43.256Z,49.30
2023-03-29T09:03:32.020Z,49.30
2023-03-29T09:06:07.627Z,49.40
2023-03-29T09:08:40.236Z,49.20
2023-03-29T09:11:23.217Z,49.20
2023-03-29T09:14:23.285Z,49.10
2023-03-29T09:17:08.379Z,49.40
2023-03-29T09:19:44.164Z,49.70
2023-03-29T09:22:43.516Z,49.60
2023-03-29T09:25:14.568Z,49.40
2023-03-29T09:28:04.984Z,49.50
2023-03-29T09:30:54.137Z,49.70
2023-03-29T09:33:32.336Z,49.50
2023-03-29T09:36:36.431Z,49.90
2023-03-29T09:39:05.191Z,49.80
2023-03-29T09:41:43.991Z,49.60
2023-03-29T09:44:29.848Z,49.40
2023-03-29T09:47:08.578Z,49.60
2023-03-29T09:49:45.673Z,49.80
2023-03-29T09:52:16.570Z,49.50
2023-03-29T09:54:50.191Z,49.50
2023-03-29T09:57:38.169Z,50.20
2023-03-29T10:00:06.391Z,50.40
2023-03-29T10:02:40.925Z,50.00
2023-03-29T10:05:16.296Z,49.90
2023-03-29T10:07:52.975Z,49.80
2023-03-29T10:10:30.613Z,50.10
2023-03-29T10:13:01.484Z,49.50
2023-03-29T10:15:30.577Z,48.80
2023-03-29T10:18:10.975Z,48.20
2023-03-29T10:20:40.218Z,46.80
2023-03-29T10:23:09.079Z,46.30
2023-03-29T10:25:42.642Z,45.70
2023-03-29T10:28:22.623Z,46.30
2023-03-29T10:30:55.099Z,46.90
2023-03-29T10:33:24.651Z,47.30
2023-03-29T10:35:52.038Z,48.00
2023-03-29T10:38:24.975Z,48.40
2023-03-29T10:40:53.369Z,49.00
2023-03-29T10:43:20.204Z,49.50
2023-03-29T10:45:52.600Z,49.50
2023-03-29T10:48:25.279Z,49.20
2023-03-29T10:50:54.844Z,49.00
2023-03-29T10:53:32.440Z,49.20
2023-03-29T10:56:11.123Z,49.10
2023-03-29T10:58:37.886Z,49.50
2023-03-29T11:01:05.713Z,49.60
2023-03-29T11:03:47.753Z,49.90
2023-03-29T11:06:27.107Z,50.60
2023-03-29T11:08:58.641Z,51.10
2023-03-29T11:11:37.614Z,51.10
2023-03-29T11:14:35.669Z,51.50
2023-03-29T11:17:20.937Z,52.10
2023-03-29T11:19:55.271Z,52.60
2023-03-29T11:22:51.499Z,52.50
2023-03-29T11:25:49.148Z,52.40
2023-03-29T11:28:29.357Z,52.20
2023-03-29T11:31:20.042Z,52.00
2023-03-29T11:34:08.011Z,52.00
2023-03-29T11:36:57.826Z,52.10
2023-03-29T11:39:56.188Z,52.30
2023-03-29T11:42:29.242Z,52.40
2023-03-29T11:44:58.810Z,52.50
2023-03-29T11:47:35.074Z,52.40
2023-03-29T11:50:08.301Z,52.10
2023-03-29T11:52:51.318Z,51.90
2023-03-29T11:55:26.149Z,51.70
2023-03-29T11:58:07.820Z,51.50
2023-03-29T12:00:40.240Z,51.40
2023-03-29T12:03:10.315Z,51.40
2023-03-29T12:05:44.397Z,51.20
2023-03-29T12:08:20.218Z,51.60
2023-03-29T12:11:07.254Z,52.10
2023-03-29T12:13:43.978Z,52.10
2023-03-29T12:16:44.409Z,52.30
2023-03-29T12:19:45.310Z,52.00
2023-03-29T12:22:12.090Z,52.30
2023-03-29T12:24:46.998Z,52.40
2023-03-29T12:27:29.160Z,52.50
2023-03-29T12:30:13.081Z,53.00
2023-03-29T12:33:15.124Z,53.20
2023-03-29T12:35:58.955Z,53.30
2023-03-29T12:38:45.376Z,53.50
2023-03-29T12:41:37.091Z,54.00
2023-03-29T12:44:23.942Z,54.30
2023-03-29T12:46:59.193Z,54.50
2023-03-29T12:49:36.081Z,54.70
2023-03-29T12:52:13.608Z,54.90
2023-03-29T12:54:40.582Z,55.00
2023-03-29T12:57:25.621Z,55.00
2023-03-29T12:59:52.643Z,55.10
2023-03-29T13:02:19.402Z,54.80
2023-03-29T13:04:55.930Z,54.40
2023-03-29T13:07:22.911Z,53.80
2023-03-29T13:10:07.760Z,52.90
2023-03-29T13:12:43.433Z,52.10
2023-03-29T13:15:18.999Z,51.70
2023-03-29T13:17:58.527Z,51.80
2023-03-29T13:20:59.047Z,51.50
2023-03-29T13:23:51.635Z,51.80
2023-03-29T13:26:21.910Z,52.20
2023-03-29T13:29:13.809Z,52.50
2023-03-29T13:31:50.349Z,52.70
2023-03-29T13:34:36.684Z,52.80
2023-03-29T13:37:30.907Z,53.30
2023-03-29T13:39:58.099Z,53.30
2023-03-29T13:42:32.776Z,52.60
2023-03-29T13:45:23.825Z,52.30
2023-03-29T13:48:19.470Z,52.10
2023-03-29T13:50:54.327Z,52.20
2023-03-29T13:53:39.331Z,52.10
2023-03-29T13:56:11.014Z,52.30
2023-03-29T13:59:03.690Z,52.30
2023-03-29T14:01:46.739Z,52.20
2023-03-29T14:04:24.166Z,51.70
2023-03-29T14:06:53.980Z,51.60
2023-03-29T14:09:26.062Z,51.40
2023-03-29T14:11:53.160Z,51.30
2023-03-29T14:14:24.923Z,51.20
2023-03-29T14:16:54.123Z,51.20
2023-03-29T14:19:42.039Z,50.80
2023-03-29T14:22:13.124Z,51.50
2023-03-29T14:24:48.046Z,51.40
2023-03-29T14:27:16.090Z,52.10
2023-03-29T14:29:49.646Z,51.70
2023-03-29T14:32:27.666Z,51.20
2023-03-29T14:34:54.635Z,51.10
2023-03-29T14:37:26.485Z,50.70
2023-03-29T14:39:53.924Z,50.50
2023-03-29T14:42:29.739Z,49.80
2023-03-29T14:45:04.393Z,49.20
2023-03-29T14:47:33.716Z,49.60
2023-03-29T14:50:01.749Z,50.00
2023-03-29T14:52:30.444Z,49.60
2023-03-29T14:55:00.601Z,48.80
2023-03-29T14:57:32.940Z,48.50
2023-03-29T15:00:07.925Z,47.20
2023-03-29T15:02:34.881Z,47.50
2023-03-29T15:05:28.857Z,47.80
2023-03-29T15:07:56.327Z,48.50
2023-03-29T15:10:23.616Z,47.80
2023-03-29T15:12:51.151Z,48.10
2023-03-29T15:15:18.542Z,48.00
2023-03-29T15:17:50.934Z,48.80
2023-03-29T15:20:24.057Z,49.40
2023-03-29T15:22:56.700Z,49.30
2023-03-29T15:25:37.281Z,49.40
2023-03-29T15:28:04.677Z,49.70
2023-03-29T15:30:39.490Z,49.40
2023-03-29T15:33:14.985Z,49.10
2023-03-29T15:35:45.799Z,48.50
2023-03-29T15:38:13.100Z,48.10
2023-03-29T15:40:40.297Z,48.80
2023-03-29T15:43:07.737Z,49.40
2023-03-29T15:45:34.875Z,49.60
2023-03-29T15:48:04.820Z,49.90
2023-03-29T15:50:32.547Z,49.70
2023-03-29T15:53:08.679Z,49.90
2023-03-29T15:55:47.607Z,49.60
2023-03-29T15:58:20.689Z,50.30
2023-03-29T16:01:11.011Z,50.30
2023-03-29T16:03:39.348Z,50.60
2023-03-29T16:06:07.364Z,50.50
2023-03-29T16:08:34.217Z,50.40
2023-03-29T16:11:01.166Z,50.40
2023-03-29T16:13:27.988Z,50.50
2023-03-29T16:15:55.056Z,50.80
2023-03-29T16:18:22.209Z,51.00
2023-03-29T16:20:49.081Z,51.00
2023-03-29T16:23:16.407Z,51.30
2023-03-29T16:25:43.446Z,51.50
2023-03-29T16:28:10.272Z,51.80
2023-03-29T16:30:38.344Z,52.00
2023-03-29T16:33:08.236Z,52.10
2023-03-29T16:35:42.369Z,52.10
2023-03-29T16:38:09.316Z,52.50
2023-03-29T16:40:37.142Z,52.60
2023-03-29T16:43:04.580Z,52.80
2023-03-29T16:45:31.670Z,53.00
2023-03-29T16:47:58.605Z,53.40
2023-03-29T16:50:25.627Z,53.70
2023-03-29T16:52:52.754Z,53.90
2023-03-29T16:55:20.077Z,53.90
2023-03-29T16:57:47.878Z,54.20
2023-03-29T17:00:17.001Z,54.10
2023-03-29T17:02:44.620Z,54.20
2023-03-29T17:05:12.726Z,54.10
2023-03-29T17:07:40.185Z,54.20
2023-03-29T17:10:11.691Z,54.10
2023-03-29T17:12:38.679Z,54.40
2023-03-29T17:15:07.594Z,54.50
2023-03-29T17:17:35.310Z,54.50
2023-03-29T17:20:02.256Z,54.70
2023-03-29T17:22:29.063Z,54.60
2023-03-29T17:24:55.889Z,54.70
2023-03-29T17:27:22.766Z,54.90
2023-03-29T17:29:49.860Z,54.80
2023-03-29T17:32:16.657Z,54.90
2023-03-29T17:34:43.414Z,55.00
2023-03-29T17:37:10.289Z,55.20
2023-03-29T17:39:37.781Z,55.20
2023-03-29T17:42:05.614Z,55.20
2023-03-29T17:44:33.463Z,55.20
2023-03-29T17:47:01.153Z,55.20
2023-03-29T17:49:28.419Z,55.30
2023-03-29T17:51:55.497Z,55.50
2023-03-29T17:54:22.449Z,55.70
2023-03-29T17:56:50.507Z,55.60
2023-03-29T17:59:17.965Z,55.70
2023-03-29T18:01:44.815Z,55.80
2023-03-29T18:04:11.688Z,55.90
2023-03-29T18:06:38.565Z,56.00
2023-03-29T18:09:05.595Z,56.20
2023-03-29T18:11:32.504Z,56.40
2023-03-29T18:14:00.774Z,56.40
2023-03-29T18:16:27.583Z,56.40
2023-03-29T18:18:54.515Z,56.60
2023-03-29T18:21:21.957Z,56.80
2023-03-29T18:23:49.942Z,56.90
2023-03-29T18:26:17.432Z,57.00
2023-03-29T18:28:48.357Z,57.10
2023-03-29T18:31:16.059Z,57.20
2023-03-29T18:33:43.071Z,57.30
2023-03-29T18:36:13.139Z,57.30
2023-03-29T18:38:43.322Z,57.30
2023-03-29T18:41:12.454Z,57.50
2023-03-29T18:43:40.985Z,57.50
2023-03-29T18:46:08.629Z,57.40
2023-03-29T18:48:38.832Z,57.40
2023-03-29T18:51:07.473Z,58.20
2023-03-29T18:53:38.757Z,57.60
2023-03-29T18:56:06.575Z,57.60
2023-03-29T18:58:34.025Z,57.50
2023-03-29T19:01:03.661Z,57.40
2023-03-29T19:03:31.894Z,57.40
2023-03-29T19:05:58.881Z,57.60
2023-03-29T19:08:26.334Z,57.70
2023-03-29T19:10:59.975Z,57.70
2023-03-29T19:13:27.112Z,57.60
2023-03-29T19:15:53.978Z,57.60
2023-03-29T19:18:21.574Z,57.70
2023-03-29T19:20:51.238Z,58.80
2023-03-29T19:23:18.413Z,58.20
2023-03-29T19:25:52.798Z,58.20
2023-03-29T19:28:19.922Z,58.30
2023-03-29T19:30:46.727Z,58.30
2023-03-29T19:33:14.518Z,58.50
2023-03-29T19:35:41.786Z,58.50
2023-03-29T19:38:08.951Z,58.60
2023-03-29T19:40:36.533Z,58.80
2023-03-29T19:43:03.904Z,58.80
2023-03-29T19:45:30.732Z,59.00
2023-03-29T19:48:02.545Z,59.20
2023-03-29T19:50:32.063Z,59.40
2023-03-29T19:52:58.916Z,59.70
2023-03-29T19:55:26.754Z,59.90
2023-03-29T19:57:53.625Z,60.00
2023-03-29T20:00:24.414Z,60.10
2023-03-29T20:02:56.490Z,60.20
2023-03-29T20:05:24.121Z,60.20
2023-03-29T20:07:51.471Z,60.30
2023-03-29T20:10:18.488Z,60.50
2023-03-29T20:12:45.291Z,60.70
2023-03-29T20:15:12.151Z,60.70
2023-03-29T20:17:40.921Z,60.80
2023-03-29T20:20:10.190Z,60.80
2023-03-29T20:22:41.993Z,60.90
2023-03-29T20:25:12.142Z,61.10
2023-03-29T20:27:40.900Z,61.20
2023-03-29T20:30:09.234Z,61.20
2023-03-29T20:32:36.073Z,61.30
2023-03-29T20:35:02.977Z,61.30
2023-03-29T20:37:29.752Z,61.60
2023-03-29T20:39:56.765Z,61.90
2023-03-29T20:42:28.541Z,62.00
2023-03-29T20:44:56.497Z,62.10
2023-03-29T20:47:24.647Z,62.30
2023-03-29T20:49:54.205Z,62.30
2023-03-29T20:52:22.463Z,62.30
2023-03-29T20:54:49.511Z,62.40
2023-03-29T20:57:19.669Z,62.60
2023-03-29T20:59:48.965Z,62.50
2023-03-29T21:02:21.988Z,62.40
2023-03-29T21:04:53.227Z,62.20
2023-03-29T21:07:21.699Z,62.30
2023-03-29T21:09:49.920Z,62.10
2023-03-29T21:12:17.439Z,62.20
2023-03-29T21:14:44.769Z,62.30
2023-03-29T21:17:11.655Z,62.20
2023-03-29T21:19:39.461Z,62.30
2023-03-29T21:22:06.722Z,62.40
2023-03-29T21:24:33.898Z,62.30
2023-03-29T21:27:00.732Z,62.30
2023-03-29T21:29:27.883Z,62.30
2023-03-29T21:31:55.238Z,62.40
2023-03-29T21:34:22.216Z,62.40
2023-03-29T21:36:49.573Z,62.30
2023-03-29T21:39:16.553Z,62.30
2023-03-29T21:41:43.410Z,62.50
2023-03-29T21:44:10.364Z,62.60
2023-03-29T21:46:37.248Z,62.70
2023-03-29T21:49:04.191Z,62.70
2023-03-29T21:51:31.007Z,62.80
2023-03-29T21:53:57.767Z,62.80
2023-03-29T21:56:24.622Z,62.80
2023-03-29T21:58:51.449Z,62.70
2023-03-29T22:01:18.395Z,62.70
2023-03-29T22:03:46.230Z,62.60
2023-03-29T22:06:14.373Z,62.60
2023-03-29T22:08:41.745Z,62.60
2023-03-29T22:11:13.994Z,62.60
2023-03-29T22:13:41.021Z,62.50
2023-03-29T22:16:09.371Z,62.30
2023-03-29T22:18:43.338Z,62.10
2023-03-29T22:21:16.373Z,61.80
2023-03-29T22:23:45.508Z,61.60
2023-03-29T22:26:14.199Z,61.60
2023-03-29T22:28:41.731Z,61.50
2023-03-29T22:31:11.824Z,61.40
2023-03-29T22:33:39.253Z,61.40
2023-03-29T22:36:22.028Z,61.30
2023-03-29T22:38:50.603Z,61.20
2023-03-29T22:41:19.161Z,61.00
2023-03-29T22:43:46.134Z,61.00
2023-03-29T22:46:14.011Z,60.80
2023-03-29T22:48:41.466Z,60.80
2023-03-29T22:51:08.495Z,60.70
2023-03-29T22:53:35.510Z,60.70
2023-03-29T22:56:02.651Z,60.50
2023-03-29T22:58:29.600Z,60.50
2023-03-29T23:00:57.735Z,60.40
2023-03-29T23:03:25.112Z,60.30
2023-03-29T23:05:55.073Z,60.20
2023-03-29T23:08:25.704Z,60.10
2023-03-29T23:10:53.077Z,60.00
2023-03-29T23:13:24.142Z,59.90
2023-03-29T23:15:52.516Z,59.70
2023-03-29T23:18:21.135Z,59.40
2023-03-29T23:20:49.391Z,59.30
2023-03-29T23:23:17.778Z,59.10
2023-03-29T23:25:47.586Z,58.90
2023-03-29T23:28:21.505Z,58.90
2023-03-29T23:31:00.496Z,58.70
2023-03-29T23:33:30.643Z,58.70
2023-03-29T23:35:57.479Z,58.50
2023-03-29T23:38:24.267Z,58.50
2023-03-29T23:40:58.729Z,58.40
2023-03-29T23:43:32.902Z,58.20
2023-03-29T23:46:01.795Z,58.00
2023-03-29T23:48:29.382Z,57.90
2023-03-29T23:50:59.312Z,57.80
2023-03-29T23:53:28.735Z,57.60
2023-03-29T23:55:58.246Z,57.60
2023-03-29T23:58:25.041Z,57.50
